createdAt,value
2022-08-16T00:02:22.264Z,49.63
2022-08-16T00:04:51.106Z,56.55
2022-08-16T00:07:18.830Z,55.58
2022-08-16T00:09:46.269Z,57.78
2022-08-16T00:12:17.899Z,53.67
2022-08-16T00:14:46.045Z,58.03
2022-08-16T00:17:18.810Z,43.33
2022-08-16T00:19:46.920Z,41.55
2022-08-16T00:22:16.806Z,52.83
2022-08-16T00:24:50.156Z,46.78
2022-08-16T00:27:18.988Z,53.97
2022-08-16T00:29:47.014Z,37.78
2022-08-16T00:32:18.100Z,42.92
2022-08-16T00:34:53.195Z,48.03
2022-08-16T00:37:24.689Z,44.90
2022-08-16T00:39:58.476Z,47.25
2022-08-16T00:42:30.495Z,38.90
2022-08-16T00:45:01.312Z,36.38
2022-08-16T00:47:35.020Z,34.63
2022-08-16T00:50:05.440Z,37.85
2022-08-16T00:52:38.768Z,39.75
2022-08-16T00:55:18.566Z,38.90
2022-08-16T00:58:00.077Z,36.55
2022-08-16T01:00:29.245Z,28.92
2022-08-16T01:02:57.660Z,38.35
2022-08-16T01:05:25.527Z,39.83
2022-08-16T01:07:54.772Z,44.92
2022-08-16T01:10:32.182Z,45.90
2022-08-16T01:13:04.579Z,39.83
2022-08-16T01:15:33.019Z,38.42
2022-08-16T01:18:01.031Z,36.95
2022-08-16T01:20:32.988Z,39.28
2022-08-16T01:23:08.889Z,32.42
2022-08-16T01:25:37.568Z,41.97
2022-08-16T01:28:07.565Z,43.75
2022-08-16T01:30:39.797Z,39.15
2022-08-16T01:33:17.090Z,33.45
2022-08-16T01:35:52.516Z,37.15
2022-08-16T01:38:28.891Z,32.63
2022-08-16T01:40:58.108Z,42.17
2022-08-16T01:43:31.230Z,47.47
2022-08-16T01:46:00.372Z,41.85
2022-08-16T01:48:48.430Z,42.10
2022-08-16T01:51:17.542Z,49.92
2022-08-16T01:53:45.215Z,46.33
2022-08-16T01:56:25.191Z,50.65
2022-08-16T01:58:54.968Z,50.40
2022-08-16T02:01:23.055Z,50.10
2022-08-16T02:06:34.164Z,56.22
2022-08-16T02:09:05.197Z,50.85
2022-08-16T02:11:48.536Z,52.13
2022-08-16T02:14:22.457Z,54.42
2022-08-16T02:16:54.834Z,47.70
2022-08-16T02:19:24.462Z,49.97
2022-08-16T02:22:34.909Z,48.95
2022-08-16T02:25:01.676Z,48.25
2022-08-16T02:27:30.939Z,50.50
2022-08-16T02:30:05.139Z,47.73
2022-08-16T02:32:51.314Z,43.38
2022-08-16T02:35:23.702Z,45.65
2022-08-16T02:37:53.109Z,47.58
2022-08-16T02:40:21.314Z,48.67
2022-08-16T02:42:50.710Z,46.75
2022-08-16T02:45:19.434Z,48.20
2022-08-16T02:48:00.421Z,51.67
2022-08-16T02:50:54.375Z,48.42
2022-08-16T02:53:23.347Z,48.42
2022-08-16T02:55:51.186Z,49.38
2022-08-16T02:58:19.180Z,50.28
2022-08-16T03:00:50.103Z,53.88
2022-08-16T03:03:18.010Z,50.50
2022-08-16T03:05:50.041Z,55.03
2022-08-16T03:08:51.983Z,51.25
2022-08-16T03:11:17.712Z,56.15
2022-08-16T03:13:51.152Z,58.35
2022-08-16T03:19:06.274Z,53.65
2022-08-16T03:21:37.763Z,52.40
2022-08-16T03:24:29.236Z,50.10
2022-08-16T03:27:01.821Z,51.00
2022-08-16T03:29:31.975Z,53.63
2022-08-16T03:32:01.446Z,48.88
2022-08-16T03:34:30.123Z,53.45
2022-08-16T03:36:57.845Z,52.80
2022-08-16T03:39:25.682Z,47.67
2022-08-16T03:41:59.711Z,50.00
2022-08-16T03:44:44.269Z,53.58
2022-08-16T03:47:19.035Z,53.65
2022-08-16T03:49:52.377Z,50.65
2022-08-16T03:52:23.497Z,50.28
2022-08-16T03:54:58.203Z,46.35
2022-08-16T03:57:32.021Z,45.85
2022-08-16T04:00:20.249Z,48.35
2022-08-16T04:03:07.330Z,44.10
2022-08-16T04:05:39.629Z,49.47
2022-08-16T04:08:22.821Z,54.28
2022-08-16T04:10:55.801Z,62.33
2022-08-16T04:14:00.745Z,64.13
2022-08-16T04:16:27.459Z,57.50
2022-08-16T04:19:02.132Z,65.28
2022-08-16T04:21:31.027Z,58.20
2022-08-16T04:23:59.969Z,56.72
2022-08-16T04:26:31.122Z,58.38
2022-08-16T04:29:16.222Z,61.25
2022-08-16T04:31:56.544Z,55.70
2022-08-16T04:34:26.765Z,57.13
2022-08-16T04:36:56.770Z,51.08
2022-08-16T04:39:46.135Z,61.70
2022-08-16T04:42:15.397Z,51.83
2022-08-16T04:44:54.615Z,56.35
2022-08-16T04:47:24.369Z,57.20
2022-08-16T04:49:52.788Z,56.88
2022-08-16T04:52:34.190Z,51.22
2022-08-16T04:55:04.031Z,49.97
2022-08-16T04:57:31.363Z,55.17
2022-08-16T04:59:59.110Z,60.00
2022-08-16T05:02:46.707Z,54.00
2022-08-16T05:05:23.329Z,53.70
2022-08-16T05:07:58.511Z,53.17
2022-08-16T05:10:27.941Z,58.63
2022-08-16T05:12:55.416Z,52.17
2022-08-16T05:15:24.558Z,50.72
2022-08-16T05:17:58.450Z,59.47
2022-08-16T05:20:39.084Z,54.53
2022-08-16T05:23:15.121Z,53.42
2022-08-16T05:25:48.248Z,57.38
2022-08-16T05:28:17.247Z,54.20
2022-08-16T05:30:46.059Z,57.03
2022-08-16T05:33:18.236Z,52.80
2022-08-16T05:35:55.020Z,53.78
2022-08-16T05:38:32.744Z,50.67
2022-08-16T05:41:06.704Z,59.38
2022-08-16T05:43:43.416Z,52.85
2022-08-16T05:46:28.952Z,53.72
2022-08-16T05:49:03.806Z,52.95
2022-08-16T05:51:39.899Z,56.15
2022-08-16T05:54:11.391Z,50.05
2022-08-16T05:56:43.153Z,51.33
2022-08-16T05:59:10.934Z,51.78
2022-08-16T06:01:39.154Z,53.42
2022-08-16T06:04:13.023Z,52.05
2022-08-16T06:06:41.876Z,59.63
2022-08-16T06:09:14.484Z,55.15
2022-08-16T06:11:45.324Z,56.13
2022-08-16T06:14:12.887Z,49.30
2022-08-16T06:16:42.301Z,56.38
2022-08-16T06:19:09.628Z,55.28
2022-08-16T06:21:38.112Z,46.30
2022-08-16T06:24:52.640Z,50.70
2022-08-16T06:26:58.134Z,52.17
2022-08-16T06:29:25.982Z,45.78
2022-08-16T06:31:54.387Z,51.10
2022-08-16T06:34:55.135Z,47.38
2022-08-16T06:37:11.113Z,43.20
2022-08-16T06:39:49.411Z,50.30
2022-08-16T06:42:18.868Z,44.22
2022-08-16T06:44:47.404Z,43.88
2022-08-16T06:47:17.282Z,45.92
2022-08-16T06:49:52.692Z,44.93
2022-08-16T06:53:00.024Z,57.70
2022-08-16T06:55:13.550Z,42.47
2022-08-16T06:57:42.000Z,41.17
2022-08-16T07:00:24.071Z,42.72
2022-08-16T07:02:53.806Z,39.83
2022-08-16T07:05:27.355Z,39.75
2022-08-16T07:08:11.615Z,35.65
2022-08-16T07:10:41.688Z,38.17
2022-08-16T07:13:12.761Z,32.53
2022-08-16T07:15:50.582Z,36.10
2022-08-16T07:18:20.259Z,33.78
2022-08-16T07:20:48.531Z,32.58
2022-08-16T07:23:16.259Z,37.65
2022-08-16T07:25:44.301Z,32.50
2022-08-16T07:28:20.952Z,31.58
2022-08-16T07:30:51.633Z,33.90
2022-08-16T07:33:53.640Z,30.70
2022-08-16T07:36:07.367Z,30.73
2022-08-16T07:38:36.874Z,36.58
2022-08-16T07:41:10.086Z,31.85
2022-08-16T07:43:40.549Z,30.15
2022-08-16T07:46:39.371Z,30.13
2022-08-16T07:49:02.604Z,31.88
2022-08-16T07:51:31.773Z,32.58
2022-08-16T07:54:02.449Z,29.10
2022-08-16T07:56:37.388Z,33.67
2022-08-16T07:59:05.018Z,32.67
2022-08-16T08:01:32.747Z,35.95
2022-08-16T08:04:02.569Z,40.22
2022-08-16T08:06:31.100Z,38.38
2022-08-16T08:08:59.240Z,37.85
2022-08-16T08:11:28.115Z,38.92
2022-08-16T08:14:03.241Z,35.03
2022-08-16T08:16:31.456Z,32.75
2022-08-16T08:19:03.136Z,36.75
2022-08-16T08:22:00.779Z,34.17
2022-08-16T08:24:19.472Z,34.38
2022-08-16T08:26:49.790Z,35.03
2022-08-16T08:29:22.488Z,34.38
2022-08-16T08:31:51.985Z,38.97
2022-08-16T08:34:22.158Z,32.63
2022-08-16T08:36:54.124Z,34.28
2022-08-16T08:39:21.880Z,31.05
2022-08-16T08:41:49.342Z,36.25
2022-08-16T08:44:29.865Z,31.80
2022-08-16T08:47:09.461Z,34.15
2022-08-16T08:49:50.476Z,31.55
2022-08-16T08:52:35.452Z,37.50
2022-08-16T08:55:10.723Z,31.23
2022-08-16T08:57:47.884Z,35.40
2022-08-16T09:00:17.796Z,30.02
2022-08-16T09:02:52.021Z,31.65
2022-08-16T09:05:20.507Z,26.75
2022-08-16T09:08:00.197Z,28.70
2022-08-16T09:10:30.581Z,33.88
2022-08-16T09:12:59.372Z,35.93
2022-08-16T09:15:33.274Z,23.17
2022-08-16T09:18:25.034Z,29.33
2022-08-16T09:20:59.583Z,31.50
2022-08-16T09:23:28.331Z,32.78
2022-08-16T09:25:55.574Z,31.88
2022-08-16T09:29:13.821Z,28.85
2022-08-16T09:31:10.826Z,31.40
2022-08-16T09:33:39.566Z,28.65
2022-08-16T09:36:12.015Z,28.83
2022-08-16T09:38:50.624Z,25.45
2022-08-16T09:41:18.163Z,27.75
2022-08-16T09:44:00.041Z,28.95
2022-08-16T09:46:44.640Z,29.10
2022-08-16T09:49:14.073Z,25.75
2022-08-16T09:51:43.111Z,30.97
2022-08-16T09:54:16.778Z,25.95
2022-08-16T09:56:52.196Z,26.00
2022-08-16T09:59:22.265Z,40.03
2022-08-16T10:01:51.567Z,27.50
2022-08-16T10:04:30.273Z,24.60
2022-08-16T10:09:45.076Z,25.25
2022-08-16T10:12:42.536Z,21.88
2022-08-16T10:15:15.559Z,25.67
2022-08-16T10:18:01.106Z,26.25
2022-08-16T10:20:31.424Z,24.08
2022-08-16T10:23:05.541Z,28.27
2022-08-16T10:27:17.314Z,26.98
2022-08-16T10:28:30.432Z,28.35
2022-08-16T10:31:03.464Z,26.15
2022-08-16T10:33:33.314Z,25.27
2022-08-16T10:36:03.875Z,31.70
2022-08-16T10:41:00.720Z,25.35
2022-08-16T10:43:31.200Z,22.73
2022-08-16T10:46:00.191Z,21.67
2022-08-16T10:48:29.289Z,21.20
2022-08-16T10:50:59.011Z,19.70
2022-08-16T10:53:32.472Z,25.52
2022-08-16T10:56:01.576Z,24.30
2022-08-16T10:58:34.590Z,20.60
2022-08-16T11:01:39.635Z,23.50
2022-08-16T11:03:57.032Z,24.40
2022-08-16T11:06:26.759Z,23.65
2022-08-16T11:14:30.505Z,19.63
2022-08-16T11:17:02.560Z,25.85
2022-08-16T11:20:00.586Z,30.52
2022-08-16T11:22:47.316Z,26.63
2022-08-16T11:25:59.621Z,25.33
2022-08-16T11:28:03.280Z,27.27
2022-08-16T11:30:39.125Z,21.90
2022-08-16T11:33:07.065Z,27.30
2022-08-16T11:38:47.577Z,20.60
2022-08-16T11:41:10.887Z,15.52
2022-08-16T11:43:41.639Z,26.20
2022-08-16T11:46:44.706Z,17.63
2022-08-16T11:48:58.282Z,17.05
2022-08-16T11:51:27.553Z,21.73
2022-08-16T11:53:54.834Z,18.92
2022-08-16T11:56:39.710Z,16.17
2022-08-16T11:59:09.950Z,22.65
2022-08-16T12:01:55.098Z,20.30
2022-08-16T12:04:27.304Z,20.40
2022-08-16T12:06:54.894Z,22.40
2022-08-16T12:09:24.846Z,24.05
2022-08-16T12:11:57.088Z,16.83
2022-08-16T12:14:24.219Z,16.70
2022-08-16T12:16:55.048Z,20.80
2022-08-16T12:19:35.586Z,21.40
2022-08-16T12:22:05.483Z,20.58
2022-08-16T12:24:45.778Z,21.40
2022-08-16T12:27:18.881Z,16.13
2022-08-16T12:29:46.282Z,22.40
2022-08-16T12:32:38.137Z,18.00
2022-08-16T12:35:03.054Z,16.73
2022-08-16T12:37:31.206Z,15.68
2022-08-16T12:39:58.801Z,13.95
2022-08-16T12:42:35.334Z,14.75
2022-08-16T12:45:07.298Z,11.43
2022-08-16T12:48:10.059Z,11.40
2022-08-16T12:50:41.216Z,13.60
2022-08-16T12:53:09.662Z,15.30
2022-08-16T12:55:42.070Z,14.02
2022-08-16T12:58:49.828Z,8.55
2022-08-16T13:03:28.991Z,8.65
2022-08-16T13:05:59.952Z,11.77
2022-08-16T13:08:30.728Z,8.00
2022-08-16T13:11:01.799Z,6.93
2022-08-16T13:13:29.759Z,14.68
2022-08-16T13:16:03.690Z,11.45
2022-08-16T13:18:34.628Z,10.38
2022-08-16T13:21:04.097Z,9.90
2022-08-16T13:23:31.572Z,13.27
2022-08-16T13:25:58.933Z,10.50
2022-08-16T13:28:26.168Z,9.73
2022-08-16T13:30:54.928Z,14.00
2022-08-16T13:33:29.769Z,12.55
2022-08-16T13:35:59.014Z,11.65
2022-08-16T13:38:31.500Z,11.70
2022-08-16T13:41:05.524Z,9.95
2022-08-16T13:43:35.881Z,18.30
2022-08-16T13:46:05.594Z,15.85
2022-08-16T13:48:42.641Z,17.38
2022-08-16T13:51:16.707Z,9.25
2022-08-16T13:53:45.139Z,13.52
2022-08-16T13:56:24.820Z,12.45
2022-08-16T13:58:55.062Z,14.75
2022-08-16T14:01:23.983Z,10.75
2022-08-16T14:03:54.572Z,12.80
2022-08-16T14:06:23.054Z,15.63
2022-08-16T14:08:59.121Z,11.88
2022-08-16T14:11:33.522Z,18.52
2022-08-16T14:14:01.898Z,15.05
2022-08-16T14:16:35.074Z,10.05
2022-08-16T14:19:03.268Z,18.80
2022-08-16T14:21:35.012Z,14.95
2022-08-16T14:24:12.901Z,12.82
2022-08-16T14:26:52.962Z,11.18
2022-08-16T14:29:20.428Z,14.10
2022-08-16T14:31:53.658Z,11.60
2022-08-16T14:34:21.784Z,19.25
2022-08-16T14:36:53.642Z,12.90
2022-08-16T14:39:22.222Z,11.10
2022-08-16T14:41:53.591Z,16.30
2022-08-16T14:44:23.612Z,13.93
2022-08-16T14:46:51.021Z,12.18
2022-08-16T14:49:20.088Z,14.23
2022-08-16T14:51:48.822Z,16.75
2022-08-16T14:54:16.304Z,12.85
2022-08-16T14:56:46.838Z,22.98
2022-08-16T14:59:22.568Z,17.48
2022-08-16T15:01:58.589Z,15.35
2022-08-16T15:04:39.254Z,16.70
2022-08-16T15:07:10.878Z,13.73
2022-08-16T15:09:44.468Z,19.23
2022-08-16T15:12:30.967Z,14.07
2022-08-16T15:15:01.789Z,17.73
2022-08-16T15:17:34.045Z,14.98
2022-08-16T15:20:08.813Z,10.93
2022-08-16T15:22:38.632Z,10.18
2022-08-16T15:25:08.401Z,14.60
2022-08-16T15:27:41.856Z,12.15
2022-08-16T15:30:57.480Z,8.18
2022-08-16T15:33:01.820Z,13.13
2022-08-16T15:35:29.911Z,9.02
2022-08-16T15:37:57.790Z,10.02
2022-08-16T15:40:32.240Z,7.90
2022-08-16T15:43:03.911Z,9.05
2022-08-16T15:45:55.699Z,8.68
2022-08-16T15:48:28.652Z,9.48
2022-08-16T15:50:58.393Z,14.35
2022-08-16T15:53:30.810Z,14.80
2022-08-16T15:55:59.179Z,13.73
2022-08-16T15:58:35.269Z,18.23
2022-08-16T16:01:05.807Z,11.23
2022-08-16T16:03:34.755Z,12.02
2022-08-16T16:06:02.770Z,14.40
2022-08-16T16:08:31.505Z,8.93
2022-08-16T16:11:03.408Z,9.43
2022-08-16T16:13:32.492Z,9.88
2022-08-16T16:16:02.967Z,8.95
2022-08-16T16:18:34.461Z,15.55
2022-08-16T16:21:09.613Z,15.70
2022-08-16T16:23:41.252Z,11.50
2022-08-16T16:26:19.962Z,17.08
2022-08-16T16:29:05.228Z,14.07
2022-08-16T16:31:36.190Z,12.40
2022-08-16T16:34:04.339Z,14.75
2022-08-16T16:36:33.366Z,12.85
2022-08-16T16:39:06.042Z,9.38
2022-08-16T16:41:35.271Z,8.57
2022-08-16T16:44:03.429Z,8.40
2022-08-16T16:46:42.656Z,15.48
2022-08-16T16:49:11.930Z,12.20
2022-08-16T16:51:44.698Z,12.98
2022-08-16T16:54:27.996Z,16.27
2022-08-16T16:56:56.040Z,10.70
2022-08-16T16:59:25.610Z,14.90
2022-08-16T17:01:57.699Z,12.40
2022-08-16T17:04:42.768Z,14.32
2022-08-16T17:07:10.856Z,13.82
2022-08-16T17:09:39.330Z,12.10
2022-08-16T17:12:08.987Z,20.52
2022-08-16T17:14:38.572Z,15.43
2022-08-16T17:17:11.652Z,12.88
2022-08-16T17:19:41.799Z,13.73
2022-08-16T17:22:14.361Z,11.20
2022-08-16T17:24:45.263Z,15.18
2022-08-16T17:27:32.655Z,12.05
2022-08-16T17:30:01.570Z,12.88
2022-08-16T17:32:33.949Z,11.63
2022-08-16T17:35:18.294Z,14.43
2022-08-16T17:37:51.731Z,11.63
2022-08-16T17:40:30.226Z,16.75
2022-08-16T17:43:10.240Z,14.55
2022-08-16T17:45:39.102Z,15.50
2022-08-16T17:48:06.494Z,22.35
2022-08-16T17:50:33.877Z,10.48
2022-08-16T17:53:03.243Z,12.13
2022-08-16T17:55:33.305Z,11.68
2022-08-16T17:58:01.213Z,16.35
2022-08-16T18:00:38.397Z,14.40
2022-08-16T18:03:06.104Z,9.63
2022-08-16T18:05:33.665Z,14.25
2022-08-16T18:08:00.815Z,11.98
2022-08-16T18:10:33.441Z,13.73
2022-08-16T18:13:03.708Z,12.30
2022-08-16T18:15:31.100Z,13.18
2022-08-16T18:17:58.400Z,9.65
2022-08-16T18:20:45.669Z,9.43
2022-08-16T18:23:17.617Z,10.60
2022-08-16T18:25:47.323Z,11.63
2022-08-16T18:28:14.728Z,20.67
2022-08-16T18:30:42.511Z,15.18
2022-08-16T18:33:09.901Z,14.90
2022-08-16T18:35:37.822Z,13.32
2022-08-16T18:38:08.516Z,12.50
2022-08-16T18:40:35.903Z,13.38
2022-08-16T18:43:05.198Z,17.52
2022-08-16T18:45:37.009Z,15.18
2022-08-16T18:48:05.102Z,14.43
2022-08-16T18:50:58.853Z,14.57
2022-08-16T18:53:20.533Z,11.13
2022-08-16T18:55:48.507Z,15.90
2022-08-16T18:58:16.489Z,15.95
2022-08-16T19:00:56.566Z,18.33
2022-08-16T19:03:26.504Z,12.10
2022-08-16T19:06:04.905Z,15.48
2022-08-16T19:08:34.778Z,26.05
2022-08-16T19:11:02.032Z,14.77
2022-08-16T19:13:29.925Z,14.30
2022-08-16T19:15:58.375Z,11.85
2022-08-16T19:18:26.915Z,14.52
2022-08-16T19:21:01.494Z,13.98
2022-08-16T19:23:32.065Z,13.88
2022-08-16T19:26:00.544Z,21.70
2022-08-16T19:28:48.903Z,23.95
2022-08-16T19:31:18.348Z,19.23
2022-08-16T19:33:54.527Z,29.75
2022-08-16T19:36:30.999Z,28.85
2022-08-16T19:39:05.011Z,21.98
2022-08-16T19:41:33.520Z,26.70
2022-08-16T19:44:00.736Z,33.15
2022-08-16T19:46:28.089Z,24.67
2022-08-16T19:48:55.324Z,23.17
2022-08-16T19:51:22.713Z,22.98
2022-08-16T19:53:49.858Z,21.55
2022-08-16T19:56:18.756Z,23.45
2022-08-16T19:59:08.918Z,26.73
2022-08-16T20:01:37.373Z,24.13
2022-08-16T20:04:08.372Z,23.88
2022-08-16T20:06:38.594Z,19.80
2022-08-16T20:09:06.380Z,19.85
2022-08-16T20:11:35.758Z,25.08
2022-08-16T20:14:03.405Z,19.05
2022-08-16T20:16:30.690Z,25.55
2022-08-16T20:19:05.402Z,23.48
2022-08-16T20:21:33.061Z,22.23
2022-08-16T20:24:22.570Z,27.80
2022-08-16T20:26:47.672Z,30.00
2022-08-16T20:29:15.983Z,32.65
2022-08-16T20:31:45.253Z,33.35
2022-08-16T20:34:12.754Z,28.88
2022-08-16T20:36:40.265Z,30.83
2022-08-16T20:39:07.824Z,31.13
2022-08-16T20:41:37.076Z,32.55
2022-08-16T20:44:04.583Z,32.03
2022-08-16T20:46:39.742Z,35.58
2022-08-16T20:49:09.134Z,35.08
2022-08-16T20:51:49.579Z,35.55
2022-08-16T20:56:45.502Z,35.50
2022-08-16T20:59:12.874Z,34.28
2022-08-16T21:01:46.266Z,33.53
2022-08-16T21:04:18.750Z,34.03
2022-08-16T21:06:53.713Z,36.65
2022-08-16T21:09:23.408Z,34.20
2022-08-16T21:11:52.662Z,31.27
2022-08-16T21:14:20.256Z,31.00
2022-08-16T21:16:47.779Z,34.90
2022-08-16T21:19:15.227Z,34.90
2022-08-16T21:21:42.718Z,30.13
2022-08-16T21:24:09.971Z,30.20
2022-08-16T21:26:39.080Z,27.20
2022-08-16T21:29:07.704Z,33.22
2022-08-16T21:31:40.291Z,30.27
2022-08-16T21:34:08.181Z,28.27
2022-08-16T21:36:36.701Z,31.10
2022-08-16T21:39:05.714Z,33.70
2022-08-16T21:41:33.368Z,31.38
2022-08-16T21:44:00.481Z,31.98
2022-08-16T21:46:27.794Z,27.85
2022-08-16T21:48:55.020Z,29.52
2022-08-16T21:51:23.194Z,27.38
2022-08-16T21:53:51.487Z,28.35
2022-08-16T21:56:21.091Z,28.63
2022-08-16T21:58:53.285Z,29.65
2022-08-16T22:01:22.765Z,26.63
2022-08-16T22:04:05.777Z,23.25
2022-08-16T22:06:38.362Z,29.38
2022-08-16T22:09:05.926Z,28.13
2022-08-16T22:11:33.570Z,39.80
2022-08-16T22:14:01.064Z,32.22
2022-08-16T22:16:29.762Z,33.75
2022-08-16T22:18:57.029Z,33.25
2022-08-16T22:21:24.725Z,38.67
2022-08-16T22:23:56.701Z,36.20
2022-08-16T22:26:31.292Z,36.17
2022-08-16T22:29:06.070Z,38.40
2022-08-16T22:31:36.932Z,41.30
2022-08-16T22:36:32.927Z,43.42
2022-08-16T22:39:03.629Z,39.30
2022-08-16T22:41:32.333Z,44.28
2022-08-16T22:44:02.169Z,44.20
2022-08-16T22:46:30.383Z,47.15
2022-08-16T22:48:57.709Z,40.42
2022-08-16T22:51:26.092Z,43.60
2022-08-16T22:53:53.886Z,50.58
2022-08-16T22:56:23.491Z,45.05
2022-08-16T22:58:51.148Z,44.50
2022-08-16T23:01:20.258Z,43.95
2022-08-16T23:03:47.654Z,45.63
2022-08-16T23:06:15.133Z,50.85
2022-08-16T23:08:43.006Z,43.80
2022-08-16T23:11:11.337Z,48.30
2022-08-16T23:13:52.507Z,50.55
2022-08-16T23:16:33.662Z,43.78
2022-08-16T23:19:06.706Z,46.65
2022-08-16T23:21:37.082Z,50.83
2022-08-16T23:24:06.607Z,53.80
2022-08-16T23:26:47.947Z,46.67
2022-08-16T23:29:26.042Z,49.97
2022-08-16T23:32:10.781Z,51.05
2022-08-16T23:34:41.271Z,46.72
2022-08-16T23:37:09.561Z,48.95
2022-08-16T23:39:36.963Z,51.03
2022-08-16T23:42:11.594Z,50.55
2022-08-16T23:44:55.844Z,49.97
2022-08-16T23:47:26.491Z,51.33
2022-08-16T23:50:01.062Z,51.55
2022-08-16T23:52:40.506Z,45.42
2022-08-16T23:55:18.257Z,51.45
2022-08-16T23:57:46.017Z,52.47
